RJAW/IWO METAR and TAF weather

Enter ICAO airport designator
Station Type Date Time Source
RJAW METAR 2022/09/26 09:00 UTC NOAA

RJAW 260900Z 03018KT 9999 FEW010 BKN015 BKN/// 26/25 Q1004 RMK 1CU010 5CU015 A2965


Station Type Date Time Source
RJAW Decoded METAR 2022/09/26 09:00 UTC NOAA

Iwojima, Japan (RJAW) 24-47N 141-19E 116M
Sep 26, 2022 - 05:00 AM EDT / 2022.09.26 0900 UTC
Wind: from the NNE (030 degrees) at 21 MPH (18 KT):0
Visibility: greater than 7 mile(s):0
Sky conditions: mostly cloudy
Temperature: 78 F (26 C)
Dew Point: 77 F (25 C)
Relative Humidity: 94%
Pressure (altimeter): 29.65 in. Hg (1004 hPa)
ob: RJAW 260900Z 03018KT 9999 FEW010 BKN015 BKN/// 26/25 Q1004 RMK 1CU010 5CU015 A2965
cycle: 9

Station Type Date Time Source
RJAW TAF UTC NOAA

Error!

Example: see airport list